createdAt,value
2018-09-03T00:00:52.675Z,15.57
2018-09-03T00:01:52.664Z,15.62
2018-09-03T00:02:52.693Z,15.49
2018-09-03T00:03:52.644Z,15.50
2018-09-03T00:04:52.631Z,15.44
2018-09-03T00:05:52.620Z,15.47
2018-09-03T00:06:52.608Z,15.46
2018-09-03T00:07:52.619Z,15.39
2018-09-03T00:08:52.586Z,15.29
2018-09-03T00:09:52.574Z,15.34
2018-09-03T00:10:52.565Z,15.38
2018-09-03T00:11:52.554Z,15.34
2018-09-03T00:12:52.561Z,15.36
2018-09-03T00:13:52.531Z,15.35
2018-09-03T00:14:52.518Z,15.34
2018-09-03T00:15:52.507Z,15.34
2018-09-03T00:16:52.497Z,15.34
2018-09-03T00:17:52.506Z,15.34
2018-09-03T00:18:52.478Z,15.34
2018-09-03T00:19:52.484Z,15.31
2018-09-03T00:20:52.450Z,15.31
2018-09-03T00:21:52.440Z,15.31
2018-09-03T00:22:52.428Z,15.32
2018-09-03T00:23:52.439Z,15.21
2018-09-03T00:24:52.406Z,15.21
2018-09-03T00:25:52.394Z,15.27
2018-09-03T00:26:52.384Z,15.21
2018-09-03T00:27:52.393Z,15.19
2018-09-03T00:28:52.366Z,15.19
2018-09-03T00:29:52.351Z,15.21
2018-09-03T00:30:52.362Z,15.16
2018-09-03T00:31:52.328Z,15.31
2018-09-03T00:32:52.315Z,15.19
2018-09-03T00:33:52.307Z,15.17
2018-09-03T00:34:52.294Z,15.28
2018-09-03T00:35:52.303Z,15.23
2018-09-03T00:36:52.293Z,15.20
2018-09-03T00:37:52.285Z,15.19
2018-09-03T00:38:52.249Z,15.20
2018-09-03T00:39:52.243Z,15.21
2018-09-03T00:40:52.256Z,15.13
2018-09-03T00:41:52.215Z,15.17
2018-09-03T00:42:52.204Z,15.21
2018-09-03T00:43:52.193Z,15.31
2018-09-03T00:44:52.181Z,15.20
2018-09-03T00:45:52.190Z,15.29
2018-09-03T00:46:52.165Z,15.27
2018-09-03T00:47:52.150Z,15.32
2018-09-03T00:48:52.137Z,15.21
2018-09-03T00:49:52.126Z,15.29
2018-09-03T00:50:52.138Z,15.20
2018-09-03T00:51:52.124Z,15.31
2018-09-03T00:52:52.112Z,15.31
2018-09-03T00:53:52.084Z,15.13
2018-09-03T00:54:52.072Z,15.25
2018-09-03T00:55:52.058Z,15.27
2018-09-03T00:56:52.068Z,15.31
2018-09-03T00:57:52.038Z,15.31
2018-09-03T00:58:52.038Z,15.29
2018-09-03T00:59:52.038Z,15.31
2018-09-03T01:00:52.003Z,15.31
2018-09-03T01:01:51.993Z,15.34
2018-09-03T01:02:51.980Z,15.34
2018-09-03T01:03:51.968Z,15.34
2018-09-03T01:04:51.978Z,15.32
2018-09-03T01:05:51.966Z,15.36
2018-09-03T01:06:51.935Z,15.31
2018-09-03T01:07:51.924Z,15.34
2018-09-03T01:08:51.912Z,15.31
2018-09-03T01:09:51.925Z,15.21
2018-09-03T01:10:51.890Z,15.28
2018-09-03T01:11:51.881Z,15.16
2018-09-03T01:12:51.873Z,15.27
2018-09-03T01:13:51.856Z,15.28
2018-09-03T01:14:51.866Z,15.29
2018-09-03T01:15:51.840Z,15.28
2018-09-03T01:16:51.824Z,15.20
2018-09-03T01:17:51.813Z,15.31
2018-09-03T01:18:51.801Z,15.27
2018-09-03T01:19:51.810Z,15.25
2018-09-03T01:20:51.778Z,15.29
2018-09-03T01:21:51.766Z,15.32
2018-09-03T01:22:51.758Z,15.38
2018-09-03T01:23:51.744Z,15.27
2018-09-03T01:24:51.754Z,15.31
2018-09-03T01:25:51.750Z,15.23
2018-09-03T01:26:51.711Z,15.28
2018-09-03T01:27:51.699Z,15.35
2018-09-03T01:28:51.688Z,15.32
2018-09-03T01:29:51.676Z,15.27
2018-09-03T01:30:51.695Z,15.23
2018-09-03T01:31:51.656Z,15.21
2018-09-03T01:32:51.644Z,15.13
2018-09-03T01:33:51.632Z,15.34
2018-09-03T01:34:51.621Z,15.13
2018-09-03T01:35:51.637Z,15.23
2018-09-03T01:36:51.599Z,15.23
2018-09-03T01:37:51.588Z,15.29
2018-09-03T01:38:51.580Z,15.23
2018-09-03T01:39:51.594Z,15.31
2018-09-03T01:40:51.554Z,15.27
2018-09-03T01:41:51.541Z,15.28
2018-09-03T01:42:51.531Z,15.35
2018-09-03T01:43:51.520Z,15.29
2018-09-03T01:44:51.530Z,15.34
2018-09-03T01:45:51.500Z,15.35
2018-09-03T01:46:51.486Z,15.28
2018-09-03T01:47:51.474Z,15.29
2018-09-03T01:48:51.463Z,15.29
2018-09-03T01:49:51.482Z,15.31
2018-09-03T01:50:51.441Z,15.31
2018-09-03T01:51:51.429Z,15.35
2018-09-03T01:52:51.418Z,15.35
2018-09-03T01:53:51.407Z,15.38
2018-09-03T01:54:51.417Z,15.32
2018-09-03T01:55:51.390Z,15.38
2018-09-03T01:56:51.373Z,15.31
2018-09-03T01:57:51.362Z,15.34
2018-09-03T01:58:51.351Z,15.29
2018-09-03T01:59:51.375Z,15.36
2018-09-03T02:00:51.327Z,15.28
2018-09-03T02:01:51.320Z,15.31
2018-09-03T02:02:51.306Z,15.32
2018-09-03T02:03:51.295Z,15.27
2018-09-03T02:04:51.316Z,15.23
2018-09-03T02:05:51.272Z,15.28
2018-09-03T02:06:51.261Z,15.31
2018-09-03T02:07:51.249Z,15.29
2018-09-03T02:08:51.244Z,15.27
2018-09-03T02:09:51.297Z,15.21
2018-09-03T02:10:51.218Z,15.34
2018-09-03T02:11:51.205Z,15.31
2018-09-03T02:12:51.194Z,15.21
2018-09-03T02:13:51.186Z,15.27
2018-09-03T02:14:51.242Z,15.28
2018-09-03T02:15:51.160Z,15.29
2018-09-03T02:16:51.148Z,15.29
2018-09-03T02:17:51.138Z,15.29
2018-09-03T02:18:51.126Z,15.31
2018-09-03T02:19:51.139Z,15.32
2018-09-03T02:20:51.127Z,15.34
2018-09-03T02:21:51.093Z,15.27
2018-09-03T02:22:51.083Z,15.21
2018-09-03T02:23:51.077Z,15.38
2018-09-03T02:24:51.075Z,15.20
2018-09-03T02:25:51.070Z,15.31
2018-09-03T02:26:51.041Z,15.28
2018-09-03T02:27:51.026Z,15.34
2018-09-03T02:28:51.015Z,15.34
2018-09-03T02:29:51.004Z,15.23
2018-09-03T02:30:51.030Z,15.28
2018-09-03T02:31:50.980Z,15.31
2018-09-03T02:32:50.972Z,15.32
2018-09-03T02:33:50.958Z,15.25
2018-09-03T02:34:50.947Z,15.25
2018-09-03T02:35:50.957Z,15.20
2018-09-03T02:36:50.927Z,15.10
2018-09-03T02:37:50.917Z,15.09
2018-09-03T02:38:50.904Z,15.17
2018-09-03T02:39:50.891Z,15.11
2018-09-03T02:40:50.904Z,15.16
2018-09-03T02:41:50.874Z,15.16
2018-09-03T02:42:50.860Z,15.11
2018-09-03T02:43:50.849Z,15.13
2018-09-03T02:44:50.837Z,15.10
2018-09-03T02:45:50.847Z,15.10
2018-09-03T02:46:50.815Z,15.09
2018-09-03T02:47:50.835Z,15.06
2018-09-03T02:48:50.790Z,15.13
2018-09-03T02:49:50.781Z,15.03
2018-09-03T02:50:50.767Z,15.03
2018-09-03T02:51:50.780Z,15.03
2018-09-03T02:52:50.745Z,15.07
2018-09-03T02:53:50.734Z,15.07
2018-09-03T02:54:50.722Z,15.11
2018-09-03T02:55:50.713Z,15.07
2018-09-03T02:56:50.721Z,15.11
2018-09-03T02:57:50.689Z,15.07
2018-09-03T02:58:50.679Z,15.06
2018-09-03T02:59:50.666Z,15.07
2018-09-03T03:00:50.677Z,15.11
2018-09-03T03:01:50.644Z,15.06
2018-09-03T03:02:50.635Z,15.02
2018-09-03T03:03:50.621Z,14.94
2018-09-03T03:04:50.610Z,15.09
2018-09-03T03:05:50.622Z,15.10
2018-09-03T03:06:50.617Z,15.09
2018-09-03T03:07:50.584Z,15.10
2018-09-03T03:08:50.565Z,15.16
2018-09-03T03:09:50.554Z,15.09
2018-09-03T03:10:50.543Z,15.17
2018-09-03T03:11:50.678Z,15.17
2018-09-03T03:12:50.526Z,15.03
2018-09-03T03:13:50.509Z,15.07
2018-09-03T03:14:50.499Z,15.06
2018-09-03T03:15:50.486Z,15.07
2018-09-03T03:16:50.514Z,15.01
2018-09-03T03:17:50.473Z,14.94
2018-09-03T03:18:50.453Z,14.98
2018-09-03T03:19:50.442Z,14.99
2018-09-03T03:20:50.431Z,14.98
2018-09-03T03:21:50.462Z,15.06
2018-09-03T03:22:50.415Z,15.03
2018-09-03T03:23:50.397Z,15.11
2018-09-03T03:24:50.418Z,15.09
2018-09-03T03:25:50.375Z,15.11
2018-09-03T03:26:50.362Z,15.06
2018-09-03T03:27:50.356Z,15.09
2018-09-03T03:28:50.342Z,15.10
2018-09-03T03:29:50.351Z,15.02
2018-09-03T03:30:50.324Z,15.09
2018-09-03T03:31:50.317Z,15.03
2018-09-03T03:32:50.297Z,15.10
2018-09-03T03:33:50.287Z,15.16
2018-09-03T03:34:50.294Z,15.06
2018-09-03T03:35:50.263Z,15.07
2018-09-03T03:36:50.252Z,15.09
2018-09-03T03:37:50.241Z,15.11
2018-09-03T03:38:50.229Z,15.11
2018-09-03T03:39:50.239Z,15.09
2018-09-03T03:40:50.207Z,15.02
2018-09-03T03:41:50.197Z,15.10
2018-09-03T03:42:50.184Z,15.02
2018-09-03T03:43:50.173Z,15.07
2018-09-03T03:44:50.182Z,15.02
2018-09-03T03:45:50.189Z,15.06
2018-09-03T03:46:50.139Z,14.92
2018-09-03T03:47:50.128Z,14.92
2018-09-03T03:48:50.124Z,14.92
2018-09-03T03:49:50.116Z,14.95
2018-09-03T03:50:50.123Z,14.91
2018-09-03T03:51:50.084Z,14.95
2018-09-03T03:52:50.072Z,14.95
2018-09-03T03:53:50.061Z,14.92
2018-09-03T03:54:50.068Z,14.98
2018-09-03T03:55:50.068Z,15.01
2018-09-03T03:56:50.031Z,14.99
2018-09-03T03:57:50.017Z,14.92
2018-09-03T03:58:50.004Z,14.91
2018-09-03T03:59:49.994Z,14.94
2018-09-03T04:00:50.004Z,14.92
2018-09-03T04:01:49.971Z,15.01
2018-09-03T04:02:49.960Z,14.99
2018-09-03T04:03:49.968Z,14.91
2018-09-03T04:04:49.969Z,14.94
2018-09-03T04:05:49.926Z,14.86
2018-09-03T04:06:49.916Z,14.88
2018-09-03T04:07:49.925Z,14.83
2018-09-03T04:08:49.893Z,14.88
2018-09-03T04:09:49.902Z,14.83
2018-09-03T04:10:49.871Z,14.78
2018-09-03T04:11:49.858Z,14.81
2018-09-03T04:12:49.873Z,14.75
2018-09-03T04:13:49.836Z,14.78
2018-09-03T04:14:49.854Z,14.84
2018-09-03T04:15:49.813Z,14.75
2018-09-03T04:16:49.803Z,14.81
2018-09-03T04:17:49.794Z,14.77
2018-09-03T04:18:49.781Z,14.75
2018-09-03T04:19:49.791Z,14.88
2018-09-03T04:20:49.759Z,14.78
2018-09-03T04:21:49.747Z,14.86
2018-09-03T04:22:49.750Z,14.78
2018-09-03T04:23:49.723Z,14.86
2018-09-03T04:24:49.740Z,14.86
2018-09-03T04:25:49.701Z,14.78
2018-09-03T04:26:49.697Z,14.78
2018-09-03T04:27:49.679Z,14.81
2018-09-03T04:28:49.721Z,14.94
2018-09-03T04:29:49.680Z,14.94
2018-09-03T04:30:49.646Z,14.88
2018-09-03T04:31:49.655Z,14.92
2018-09-03T04:32:49.624Z,14.83
2018-09-03T04:33:49.612Z,14.94
2018-09-03T04:34:49.602Z,14.88
2018-09-03T04:35:49.593Z,14.94
2018-09-03T04:36:49.600Z,14.84
2018-09-03T04:37:49.568Z,14.81
2018-09-03T04:38:49.599Z,14.88
2018-09-03T04:39:49.545Z,14.89
2018-09-03T04:40:49.536Z,14.95
2018-09-03T04:41:49.566Z,14.95
2018-09-03T04:42:49.532Z,14.91
2018-09-03T04:43:49.499Z,14.96
2018-09-03T04:44:49.489Z,14.98
2018-09-03T04:45:49.507Z,14.89
2018-09-03T04:46:49.468Z,14.91
2018-09-03T04:47:49.478Z,14.91
2018-09-03T04:48:49.444Z,14.91
2018-09-03T04:49:49.433Z,14.96
2018-09-03T04:50:49.422Z,14.99
2018-09-03T04:51:49.433Z,15.02
2018-09-03T04:52:49.400Z,15.06
2018-09-03T04:53:49.402Z,15.07
2018-09-03T04:54:49.746Z,15.02
2018-09-03T04:55:49.365Z,15.09
2018-09-03T04:56:49.377Z,15.03
2018-09-03T04:57:49.343Z,15.10
2018-09-03T04:58:49.353Z,15.11
2018-09-03T04:59:49.321Z,15.16
2018-09-03T05:00:49.310Z,15.11
2018-09-03T05:01:49.305Z,15.07
2018-09-03T05:02:49.287Z,15.13
2018-09-03T05:03:49.297Z,15.17
2018-09-03T05:04:49.286Z,15.19
2018-09-03T05:05:49.382Z,15.14
2018-09-03T05:06:49.242Z,15.20
2018-09-03T05:07:49.239Z,15.20
2018-09-03T05:08:49.221Z,15.23
2018-09-03T05:09:49.224Z,15.16
2018-09-03T05:10:49.199Z,15.21
2018-09-03T05:11:49.273Z,15.21
2018-09-03T05:12:49.176Z,15.27
2018-09-03T05:13:49.165Z,15.23
2018-09-03T05:14:49.177Z,15.31
2018-09-03T05:15:49.148Z,15.27
2018-09-03T05:16:49.155Z,15.21
2018-09-03T05:17:49.120Z,15.27
2018-09-03T05:18:49.108Z,15.34
2018-09-03T05:19:49.154Z,15.27
2018-09-03T05:20:49.125Z,15.28
2018-09-03T05:21:49.107Z,15.19
2018-09-03T05:22:49.064Z,15.28
2018-09-03T05:23:49.054Z,15.29
2018-09-03T05:24:49.049Z,15.31
2018-09-03T05:25:49.030Z,15.25
2018-09-03T05:26:49.045Z,15.27
2018-09-03T05:27:49.007Z,15.27
2018-09-03T05:28:48.997Z,15.27
2018-09-03T05:29:48.985Z,15.25
2018-09-03T05:30:48.974Z,15.28
2018-09-03T05:31:48.997Z,15.28
2018-09-03T05:32:48.950Z,15.34
2018-09-03T05:33:48.939Z,15.31
2018-09-03T05:34:48.928Z,15.43
2018-09-03T05:35:48.919Z,15.35
2018-09-03T05:36:48.944Z,15.41
2018-09-03T05:37:48.897Z,15.34
2018-09-03T05:38:48.884Z,15.36
2018-09-03T05:39:48.965Z,15.31
2018-09-03T05:40:48.860Z,15.35
2018-09-03T05:41:48.874Z,15.31
2018-09-03T05:42:48.842Z,15.44
2018-09-03T05:43:48.847Z,15.38
2018-09-03T05:44:48.833Z,15.35
2018-09-03T05:45:48.935Z,15.49
2018-09-03T05:46:48.850Z,15.49
2018-09-03T05:47:48.782Z,15.41
2018-09-03T05:48:48.776Z,15.49
2018-09-03T05:49:48.781Z,15.49
2018-09-03T05:50:48.748Z,15.54
2018-09-03T05:51:48.739Z,15.50
2018-09-03T05:52:48.724Z,15.50
2018-09-03T05:53:48.714Z,15.53
2018-09-03T05:54:48.725Z,15.50
2018-09-03T05:55:48.691Z,15.51
2018-09-03T05:56:48.679Z,15.60
2018-09-03T05:57:48.668Z,15.54
2018-09-03T05:58:48.658Z,15.62
2018-09-03T05:59:48.667Z,15.62
2018-09-03T06:00:48.639Z,15.56
2018-09-03T06:01:48.623Z,15.56
2018-09-03T06:02:48.627Z,15.62
2018-09-03T06:03:48.604Z,15.64
2018-09-03T06:04:48.657Z,15.72
2018-09-03T06:05:48.580Z,15.72
2018-09-03T06:06:48.567Z,15.75
2018-09-03T06:07:48.556Z,15.69
2018-09-03T06:08:48.545Z,15.74
2018-09-03T06:09:48.556Z,15.80
2018-09-03T06:10:48.522Z,15.76
2018-09-03T06:11:48.511Z,15.68
2018-09-03T06:12:48.499Z,15.74
2018-09-03T06:13:48.528Z,15.89
2018-09-03T06:14:48.479Z,15.82
2018-09-03T06:15:48.465Z,15.90
2018-09-03T06:16:48.457Z,16.00
2018-09-03T06:17:48.485Z,16.07
2018-09-03T06:18:48.456Z,16.11
2018-09-03T06:19:48.425Z,16.15
2018-09-03T06:20:48.408Z,16.33
2018-09-03T06:21:48.397Z,16.38
2018-09-03T06:22:48.417Z,16.39
2018-09-03T06:23:48.376Z,16.64
2018-09-03T06:24:48.363Z,16.64
2018-09-03T06:25:48.355Z,16.70
2018-09-03T06:26:48.398Z,16.60
2018-09-03T06:27:48.352Z,16.70
2018-09-03T06:28:48.324Z,16.75
2018-09-03T06:29:48.308Z,16.64
2018-09-03T06:30:48.335Z,16.60
2018-09-03T06:31:48.285Z,16.61
2018-09-03T06:32:48.293Z,16.68
2018-09-03T06:33:48.262Z,16.70
2018-09-03T06:34:48.252Z,16.79
2018-09-03T06:35:48.302Z,16.82
2018-09-03T06:36:48.229Z,16.85
2018-09-03T06:37:48.218Z,16.89
2018-09-03T06:38:48.227Z,16.98
2018-09-03T06:39:48.197Z,17.07
2018-09-03T06:40:48.183Z,16.98
2018-09-03T06:41:48.175Z,17.07
2018-09-03T06:42:48.164Z,17.12
2018-09-03T06:43:48.175Z,17.08
2018-09-03T06:44:48.138Z,17.04
2018-09-03T06:45:48.165Z,17.07
2018-09-03T06:46:48.115Z,17.03
2018-09-03T06:47:48.129Z,17.08
2018-09-03T06:48:48.093Z,17.19
2018-09-03T06:49:48.081Z,17.19
2018-09-03T06:50:48.083Z,17.26
2018-09-03T06:51:48.060Z,17.22
2018-09-03T06:52:48.112Z,17.21
2018-09-03T06:53:48.040Z,17.25
2018-09-03T06:54:48.025Z,17.30
2018-09-03T06:55:48.020Z,17.40
2018-09-03T06:56:48.003Z,17.51
2018-09-03T06:57:48.014Z,17.52
2018-09-03T06:58:47.982Z,17.64
2018-09-03T06:59:47.970Z,17.74
2018-09-03T07:00:47.958Z,17.75
2018-09-03T07:01:47.947Z,17.75
2018-09-03T07:02:47.960Z,17.74
2018-09-03T07:03:47.926Z,17.77
2018-09-03T07:04:47.914Z,18.00
2018-09-03T07:05:47.901Z,18.14
2018-09-03T07:06:47.902Z,18.23
2018-09-03T07:07:47.901Z,18.37
2018-09-03T07:08:47.868Z,18.41
2018-09-03T07:09:47.858Z,18.50
2018-09-03T07:10:47.848Z,18.67
2018-09-03T07:11:47.855Z,18.62
2018-09-03T07:12:47.826Z,18.55
2018-09-03T07:13:47.820Z,18.48
2018-09-03T07:14:47.800Z,18.62
2018-09-03T07:15:47.810Z,18.57
2018-09-03T07:16:47.778Z,18.48
2018-09-03T07:17:47.766Z,18.63
2018-09-03T07:18:47.830Z,18.75
2018-09-03T07:19:47.750Z,18.88
2018-09-03T07:20:47.755Z,18.99
2018-09-03T07:21:47.749Z,18.94
2018-09-03T07:22:47.712Z,18.95
2018-09-03T07:23:47.701Z,19.04
2018-09-03T07:24:47.689Z,18.98
2018-09-03T07:25:47.699Z,18.87
2018-09-03T07:26:47.688Z,18.76
2018-09-03T07:27:47.655Z,18.52
2018-09-03T07:28:47.697Z,18.47
2018-09-03T07:29:47.634Z,18.41
2018-09-03T07:30:47.642Z,18.32
2018-09-03T07:31:47.610Z,18.33
2018-09-03T07:32:47.600Z,18.29
2018-09-03T07:33:47.588Z,18.23
2018-09-03T07:34:47.578Z,18.29
2018-09-03T07:35:47.587Z,18.20
2018-09-03T07:36:47.555Z,18.15
2018-09-03T07:37:47.544Z,18.18
2018-09-03T07:38:47.545Z,17.99
2018-09-03T07:39:47.522Z,17.90
2018-09-03T07:40:47.530Z,17.97
2018-09-03T07:41:47.499Z,17.96
2018-09-03T07:42:47.488Z,17.95
2018-09-03T07:43:47.476Z,17.95
2018-09-03T07:44:47.487Z,17.92
2018-09-03T07:45:47.454Z,17.96
2018-09-03T07:46:47.444Z,17.95
2018-09-03T07:47:47.453Z,17.92
2018-09-03T07:48:47.441Z,17.92
2018-09-03T07:49:47.409Z,17.96
2018-09-03T07:50:47.398Z,17.89
2018-09-03T07:51:47.387Z,17.96
2018-09-03T07:52:47.376Z,17.93
2018-09-03T07:53:47.389Z,17.95
2018-09-03T07:54:47.355Z,17.93
2018-09-03T07:55:47.344Z,17.95
2018-09-03T07:56:47.330Z,18.08
2018-09-03T07:57:47.339Z,18.26
2018-09-03T07:58:47.331Z,18.25
2018-09-03T07:59:47.297Z,18.18
2018-09-03T08:00:47.288Z,18.27
2018-09-03T08:01:47.275Z,18.21
2018-09-03T08:02:47.267Z,18.07
2018-09-03T08:03:47.273Z,18.12
2018-09-03T08:04:47.241Z,18.03
2018-09-03T08:05:47.231Z,18.02
2018-09-03T08:06:47.219Z,18.02
2018-09-03T08:07:47.207Z,18.23
2018-09-03T08:08:47.219Z,18.21
2018-09-03T08:09:47.207Z,18.11
2018-09-03T08:10:47.174Z,18.26
2018-09-03T08:11:47.162Z,18.25
2018-09-03T08:12:47.182Z,18.21
2018-09-03T08:13:47.143Z,18.30
2018-09-03T08:14:47.161Z,18.25
2018-09-03T08:15:47.120Z,18.26
2018-09-03T08:16:47.108Z,18.26
2018-09-03T08:17:47.095Z,18.23
2018-09-03T08:18:47.086Z,18.18
2018-09-03T08:19:47.095Z,18.29
2018-09-03T08:20:47.083Z,18.30
2018-09-03T08:21:47.051Z,18.37
2018-09-03T08:22:47.043Z,18.52
2018-09-03T08:23:47.034Z,18.80
2018-09-03T08:24:47.017Z,18.81
2018-09-03T08:25:47.027Z,18.98
2018-09-03T08:26:46.995Z,18.98
2018-09-03T08:27:46.983Z,19.13
2018-09-03T08:28:46.994Z,19.07
2018-09-03T08:29:46.961Z,19.00
2018-09-03T08:30:46.972Z,19.08
2018-09-03T08:31:46.939Z,19.18
2018-09-03T08:32:46.927Z,19.22
2018-09-03T08:33:46.917Z,19.21
2018-09-03T08:34:46.909Z,19.13
2018-09-03T08:35:46.908Z,19.21
2018-09-03T08:36:46.884Z,19.18
2018-09-03T08:37:46.874Z,19.13
2018-09-03T08:38:46.860Z,19.18
2018-09-03T08:39:46.885Z,19.11
2018-09-03T08:40:46.876Z,19.08
2018-09-03T08:41:46.828Z,19.07
2018-09-03T08:42:46.815Z,19.08
2018-09-03T08:43:46.803Z,19.08
2018-09-03T08:44:46.821Z,19.07
2018-09-03T08:45:46.803Z,19.22
2018-09-03T08:46:46.773Z,19.29
2018-09-03T08:47:46.759Z,19.29
2018-09-03T08:48:46.748Z,19.26
2018-09-03T08:49:46.736Z,19.32
2018-09-03T08:50:46.749Z,19.26
2018-09-03T08:51:46.713Z,19.36
2018-09-03T08:52:46.704Z,19.39
2018-09-03T08:53:46.691Z,19.39
2018-09-03T08:54:46.701Z,19.46
2018-09-03T08:55:46.669Z,19.56
2018-09-03T08:56:46.685Z,19.50
2018-09-03T08:57:46.646Z,19.43
2018-09-03T08:58:46.635Z,19.33
2018-09-03T08:59:46.648Z,19.33
2018-09-03T09:00:46.633Z,19.32
2018-09-03T09:01:46.600Z,19.28
2018-09-03T09:02:46.590Z,19.23
2018-09-03T09:03:46.584Z,19.22
2018-09-03T09:04:46.567Z,19.04
2018-09-03T09:05:46.605Z,19.11
2018-09-03T09:06:46.545Z,19.11
2018-09-03T09:07:46.535Z,19.07
2018-09-03T09:08:46.522Z,18.99
2018-09-03T09:09:46.535Z,18.99
2018-09-03T09:10:46.500Z,18.95
2018-09-03T09:11:46.521Z,19.00
2018-09-03T09:12:46.516Z,18.98
2018-09-03T09:13:46.467Z,18.95
2018-09-03T09:14:46.457Z,18.88
2018-09-03T09:15:46.444Z,18.76
2018-09-03T09:16:46.433Z,18.90
2018-09-03T09:17:46.460Z,18.84
2018-09-03T09:18:46.411Z,18.84
2018-09-03T09:19:46.400Z,18.81
2018-09-03T09:20:46.391Z,18.84
2018-09-03T09:21:46.377Z,18.82
2018-09-03T09:22:46.387Z,18.69
2018-09-03T09:23:46.354Z,18.66
2018-09-03T09:24:46.344Z,18.67
2018-09-03T09:25:46.332Z,18.54
2018-09-03T09:26:46.321Z,18.48
2018-09-03T09:27:46.347Z,18.57
2018-09-03T09:28:46.300Z,18.44
2018-09-03T09:29:46.288Z,18.44
2018-09-03T09:30:46.276Z,18.42
2018-09-03T09:31:46.265Z,18.45
2018-09-03T09:32:46.275Z,18.44
2018-09-03T09:33:46.243Z,18.50
2018-09-03T09:34:46.232Z,18.41
2018-09-03T09:35:46.233Z,18.41
2018-09-03T09:36:46.224Z,18.42
2018-09-03T09:37:46.225Z,18.44
2018-09-03T09:38:46.186Z,18.50
2018-09-03T09:39:46.175Z,18.50
2018-09-03T09:40:46.164Z,18.48
2018-09-03T09:41:46.152Z,18.44
2018-09-03T09:42:46.162Z,18.32
2018-09-03T09:43:46.170Z,18.26
2018-09-03T09:44:46.121Z,18.26
2018-09-03T09:45:46.109Z,18.17
2018-09-03T09:46:46.096Z,18.17
2018-09-03T09:47:46.086Z,18.11
2018-09-03T09:48:46.097Z,18.05
2018-09-03T09:49:46.066Z,18.02
2018-09-03T09:50:46.052Z,18.02
2018-09-03T09:51:46.063Z,18.05
2018-09-03T09:52:46.030Z,18.02
2018-09-03T09:53:46.018Z,18.11
2018-09-03T09:54:46.041Z,18.15
2018-09-03T09:55:45.996Z,18.12
2018-09-03T09:56:45.985Z,18.26
2018-09-03T09:57:45.973Z,18.23
2018-09-03T09:58:45.965Z,18.25
2018-09-03T09:59:45.972Z,18.27
2018-09-03T10:00:45.941Z,18.27
2018-09-03T10:01:45.952Z,18.26
2018-09-03T10:02:45.919Z,18.29
2018-09-03T10:03:45.908Z,18.27
2018-09-03T10:04:45.895Z,18.27
2018-09-03T10:05:45.905Z,18.27
2018-09-03T10:06:45.874Z,18.29
2018-09-03T10:07:45.862Z,18.25
2018-09-03T10:08:45.849Z,18.36
2018-09-03T10:09:45.840Z,18.36
2018-09-03T10:10:45.853Z,18.42
2018-09-03T10:11:45.818Z,18.41
2018-09-03T10:12:45.826Z,18.44
2018-09-03T10:13:45.794Z,18.42
2018-09-03T10:14:45.783Z,18.39
2018-09-03T10:15:45.772Z,18.45
2018-09-03T10:16:45.782Z,18.51
2018-09-03T10:17:45.750Z,18.57
2018-09-03T10:18:45.739Z,18.54
2018-09-03T10:19:45.729Z,18.45
2018-09-03T10:20:45.764Z,18.50
2018-09-03T10:21:45.704Z,18.44
2018-09-03T10:22:45.701Z,18.47
2018-09-03T10:23:45.681Z,18.47
2018-09-03T10:24:45.674Z,18.39
2018-09-03T10:25:45.691Z,18.42
2018-09-03T10:26:45.648Z,18.29
2018-09-03T10:27:45.637Z,18.36
2018-09-03T10:28:45.630Z,18.36
2018-09-03T10:29:45.615Z,18.23
2018-09-03T10:30:45.627Z,18.25
2018-09-03T10:31:45.658Z,18.23
2018-09-03T10:32:45.582Z,18.21
2018-09-03T10:33:45.570Z,18.25
2018-09-03T10:34:45.582Z,18.27
2018-09-03T10:35:45.556Z,18.30
2018-09-03T10:36:45.593Z,18.21
2018-09-03T10:37:45.525Z,18.30
2018-09-03T10:38:45.514Z,18.25
2018-09-03T10:39:45.503Z,18.29
2018-09-03T10:40:45.523Z,18.29
2018-09-03T10:41:45.481Z,18.25
2018-09-03T10:42:45.472Z,18.33
2018-09-03T10:43:45.459Z,18.39
2018-09-03T10:44:45.448Z,18.47
2018-09-03T10:45:45.463Z,18.41
2018-09-03T10:46:45.449Z,18.47
2018-09-03T10:47:45.506Z,18.47
2018-09-03T10:48:45.425Z,18.41
2018-09-03T10:49:45.392Z,18.41
2018-09-03T10:50:45.382Z,18.35
2018-09-03T10:51:45.392Z,18.50
2018-09-03T10:52:45.358Z,18.50
2018-09-03T10:53:45.369Z,18.55
2018-09-03T10:54:45.357Z,18.58
2018-09-03T10:55:45.325Z,18.55
2018-09-03T10:56:45.335Z,18.67
2018-09-03T10:57:45.302Z,18.67
2018-09-03T10:58:45.314Z,18.80
2018-09-03T10:59:45.302Z,18.69
2018-09-03T11:00:45.272Z,18.78
2018-09-03T11:01:45.258Z,18.72
2018-09-03T11:02:45.246Z,18.78
2018-09-03T11:03:45.257Z,18.67
2018-09-03T11:04:45.224Z,18.66
2018-09-03T11:05:45.235Z,18.63
2018-09-03T11:06:45.227Z,18.54
2018-09-03T11:07:45.191Z,18.67
2018-09-03T11:08:45.181Z,18.58
2018-09-03T11:09:45.169Z,18.57
2018-09-03T11:10:45.180Z,18.54
2018-09-03T11:11:45.147Z,18.57
2018-09-03T11:12:45.160Z,18.55
2018-09-03T11:13:45.125Z,18.57
2018-09-03T11:14:45.114Z,18.67
2018-09-03T11:15:45.101Z,18.62
2018-09-03T11:16:45.090Z,18.58
2018-09-03T11:17:45.127Z,18.69
2018-09-03T11:18:45.081Z,18.63
2018-09-03T11:19:45.062Z,18.80
2018-09-03T11:20:45.047Z,18.65
2018-09-03T11:21:45.315Z,18.75
2018-09-03T11:22:45.074Z,18.70
2018-09-03T11:23:45.013Z,18.76
2018-09-03T11:24:45.000Z,18.67
2018-09-03T11:25:45.010Z,18.67
2018-09-03T11:26:44.979Z,18.66
2018-09-03T11:27:44.967Z,18.66
2018-09-03T11:28:44.960Z,18.72
2018-09-03T11:29:44.945Z,18.72
2018-09-03T11:30:44.954Z,18.78
2018-09-03T11:31:44.922Z,18.84
2018-09-03T11:32:44.932Z,18.78
2018-09-03T11:33:44.899Z,18.78
2018-09-03T11:34:44.889Z,18.80
2018-09-03T11:35:44.899Z,18.82
2018-09-03T11:36:44.866Z,18.94
2018-09-03T11:37:44.880Z,18.98
2018-09-03T11:38:44.844Z,19.04
2018-09-03T11:39:44.833Z,19.14
2018-09-03T11:40:44.863Z,19.21
2018-09-03T11:41:44.832Z,19.22
2018-09-03T11:42:44.805Z,19.39
2018-09-03T11:43:44.814Z,19.40
2018-09-03T11:44:44.779Z,19.58
2018-09-03T11:45:44.765Z,19.51
2018-09-03T11:46:44.777Z,19.51
2018-09-03T11:47:44.744Z,19.63
2018-09-03T11:48:44.736Z,19.71
2018-09-03T11:49:44.727Z,19.65
2018-09-03T11:50:44.732Z,19.63
2018-09-03T11:51:44.699Z,19.54
2018-09-03T11:52:44.709Z,19.59
2018-09-03T11:53:44.677Z,19.55
2018-09-03T11:54:44.664Z,19.65
2018-09-03T11:55:44.654Z,19.69
2018-09-03T11:56:44.673Z,19.80
2018-09-03T11:57:44.653Z,19.88
2018-09-03T11:58:44.620Z,19.87
2018-09-03T11:59:44.609Z,19.96
2018-09-03T12:00:44.598Z,19.99
2018-09-03T12:01:44.612Z,19.99
2018-09-03T12:02:44.578Z,19.98
2018-09-03T12:03:44.565Z,19.94
2018-09-03T12:04:44.557Z,19.96
2018-09-03T12:05:44.543Z,20.01
2018-09-03T12:06:44.683Z,20.10
2018-09-03T12:07:44.518Z,20.01
2018-09-03T12:08:44.507Z,20.16
2018-09-03T12:09:44.500Z,20.16
2018-09-03T12:10:44.484Z,20.24
2018-09-03T12:11:44.495Z,20.21
2018-09-03T12:12:44.483Z,20.29
2018-09-03T12:13:44.450Z,20.31
2018-09-03T12:14:44.439Z,20.28
2018-09-03T12:15:44.430Z,20.24
2018-09-03T12:16:44.421Z,20.17
2018-09-03T12:17:44.427Z,20.13
2018-09-03T12:18:44.393Z,20.16
2018-09-03T12:19:44.383Z,20.29
2018-09-03T12:20:44.387Z,20.41
2018-09-03T12:21:44.360Z,20.39
2018-09-03T12:22:44.379Z,20.36
2018-09-03T12:23:44.339Z,20.42
2018-09-03T12:24:44.326Z,20.58
2018-09-03T12:25:44.315Z,20.69
2018-09-03T12:26:44.303Z,20.73
2018-09-03T12:27:44.332Z,20.84
2018-09-03T12:28:44.282Z,20.70
2018-09-03T12:29:44.270Z,20.74
2018-09-03T12:30:44.260Z,20.84
2018-09-03T12:31:44.248Z,20.87
2018-09-03T12:32:44.258Z,21.01
2018-09-03T12:33:44.250Z,21.06
2018-09-03T12:34:44.241Z,21.17
2018-09-03T12:35:44.206Z,21.21
2018-09-03T12:36:44.194Z,21.40
2018-09-03T12:37:44.186Z,21.61
2018-09-03T12:38:44.175Z,21.62
2018-09-03T12:39:44.183Z,21.72
2018-09-03T12:40:44.171Z,21.99
2018-09-03T12:41:44.139Z,22.00
2018-09-03T12:42:44.146Z,21.94
2018-09-03T12:43:44.116Z,21.96
2018-09-03T12:44:44.126Z,21.91
2018-09-03T12:45:44.094Z,21.80
2018-09-03T12:46:44.085Z,21.83
2018-09-03T12:47:44.103Z,21.72
2018-09-03T12:48:44.059Z,21.62
2018-09-03T12:49:44.047Z,21.68
2018-09-03T12:50:44.036Z,21.52
2018-09-03T12:51:44.025Z,21.46
2018-09-03T12:52:44.042Z,21.34